Time;durP1;ratioP1;P1;durP2;ratioP2;P2;SDS_P1;SDS_P2;PMS_P1;PMS_P2;Temp;Humidity;BMP_temperature;BMP_pressure;BME280_temperature;BME280_humidity;BME280_pressure;Samples;Min_cycle;Max_cycle;Signal;HPM_P1;HPM_P2
2022/11/20 00:02:45;;;;;;;10.77;7.57;;;;;;;;;;10600254;27;20056;-75
2022/11/20 00:07:45;;;;;;;14.30;7.95;;;;;;;;;;10618507;27;20502;-76
2022/11/20 00:12:46;;;;;;;13.57;8.27;;;;;;;;;;10603722;27;20045;-76
2022/11/20 00:17:46;;;;;;;13.48;6.90;;;;;;;;;;10597556;27;20031;-80
2022/11/20 00:22:46;;;;;;;11.18;6.85;;;;;;;;;;10586584;27;20091;-79
2022/11/20 00:27:47;;;;;;;9.45;6.15;;;;;;;;;;10600486;27;20023;-78
2022/11/20 00:32:50;;;;;;;7.72;4.65;;;;;;;;;;10572056;27;20497;-74
2022/11/20 00:37:50;;;;;;;13.82;5.65;;;;;;;;;;10560814;27;20027;-76
2022/11/20 00:42:51;;;;;;;9.38;4.80;;;;;;;;;;10614621;27;20024;-79
2022/11/20 00:47:51;;;;;;;6.05;3.65;;;;;;;;;;10579122;27;20106;-75
2022/11/20 00:52:52;;;;;;;5.03;3.45;;;;;;;;;;10595725;27;20027;-81
2022/11/20 00:57:52;;;;;;;11.55;3.22;;;;;;;;;;10615712;27;20015;-74
2022/11/20 01:02:52;;;;;;;6.95;2.72;;;;;;;;;;10595801;27;20385;-74
2022/11/20 01:07:52;;;;;;;11.07;3.40;;;;;;;;;;10594842;27;20463;-73
2022/11/20 01:13:36;;;;;;;5.18;1.80;;;;;;;;;;10596024;27;20049;-74
2022/11/20 01:18:13;;;;;;;5.38;2.25;;;;;;;;;;10613357;27;20023;-76
2022/11/20 01:23:13;;;;;;;3.05;2.10;;;;;;;;;;10594756;27;20084;-73
2022/11/20 01:28:13;;;;;;;4.47;2.40;;;;;;;;;;10595795;27;20298;-82
2022/11/20 01:33:14;;;;;;;4.80;2.25;;;;;;;;;;10557134;28;20056;-80
2022/11/20 01:38:22;;;;;;;4.03;1.90;;;;;;;;;;10570336;28;20034;-79
2022/11/20 01:43:23;;;;;;;5.82;2.63;;;;;;;;;;10599368;27;20063;-80
2022/11/20 01:48:25;;;;;;;4.88;2.28;;;;;;;;;;10595630;27;20542;-78
2022/11/20 01:53:30;;;;;;;7.95;3.55;;;;;;;;;;10594744;27;20402;-80
2022/11/20 01:58:33;;;;;;;9.45;3.25;;;;;;;;;;10593880;27;20020;-82
2022/11/20 02:03:34;;;;;;;4.60;2.50;;;;;;;;;;10594569;27;20020;-81
2022/11/20 02:08:36;;;;;;;8.75;3.03;;;;;;;;;;10593551;27;20066;-82
2022/11/20 02:13:45;;;;;;;6.72;2.38;;;;;;;;;;10592830;27;20019;-76
2022/11/20 02:18:46;;;;;;;11.43;2.75;;;;;;;;;;10611683;27;20371;-81
2022/11/20 02:24:05;;;;;;;3.55;2.22;;;;;;;;;;10611107;27;20012;-75
2022/11/20 02:29:06;;;;;;;4.32;1.98;;;;;;;;;;10610304;27;20034;-74
2022/11/20 02:34:06;;;;;;;4.88;2.20;;;;;;;;;;10593017;27;20406;-80
2022/11/20 02:39:07;;;;;;;5.18;1.98;;;;;;;;;;10610362;27;20164;-80
2022/11/20 02:44:07;;;;;;;6.87;1.20;;;;;;;;;;10590115;27;20110;-77
2022/11/20 02:49:07;;;;;;;0.60;0.50;;;;;;;;;;10594913;27;20272;-77
2022/11/20 02:54:08;;;;;;;1.08;0.60;;;;;;;;;;10606712;27;20030;-77
2022/11/20 02:59:08;;;;;;;2.05;0.47;;;;;;;;;;10605110;27;20486;-75
2022/11/20 03:04:09;;;;;;;2.38;0.43;;;;;;;;;;10616434;27;20386;-73
2022/11/20 03:09:09;;;;;;;3.17;0.60;;;;;;;;;;10600316;28;20057;-76
2022/11/20 03:14:10;;;;;;;4.07;0.57;;;;;;;;;;10591583;28;20019;-77
2022/11/20 03:19:11;;;;;;;2.75;0.40;;;;;;;;;;10592067;28;20023;-77
2022/11/20 03:24:12;;;;;;;2.60;0.47;;;;;;;;;;10592233;28;20023;-82
2022/11/20 03:29:12;;;;;;;1.75;0.90;;;;;;;;;;10592357;27;20023;-74
2022/11/20 03:34:12;;;;;;;1.65;0.40;;;;;;;;;;10599592;27;20023;-78
2022/11/20 03:39:13;;;;;;;1.95;0.40;;;;;;;;;;10599575;27;20019;-77
2022/11/20 03:44:13;;;;;;;2.15;0.70;;;;;;;;;;10599456;27;20494;-79
2022/11/20 03:49:13;;;;;;;3.25;0.50;;;;;;;;;;10599979;27;20336;-75
2022/11/20 03:54:13;;;;;;;3.35;0.50;;;;;;;;;;10598959;27;20409;-75
2022/11/20 03:59:14;;;;;;;1.67;0.65;;;;;;;;;;10598797;27;20027;-80
2022/11/20 04:04:14;;;;;;;2.88;0.55;;;;;;;;;;10601286;27;20023;-79
2022/11/20 04:09:15;;;;;;;0.88;0.40;;;;;;;;;;10598707;27;20058;-74
2022/11/20 04:14:15;;;;;;;2.67;0.60;;;;;;;;;;10598667;27;20582;-77
2022/11/20 04:19:16;;;;;;;4.97;0.70;;;;;;;;;;10597089;27;20088;-74
2022/11/20 04:24:16;;;;;;;0.65;0.30;;;;;;;;;;10615974;27;20022;-75
2022/11/20 04:29:17;;;;;;;0.63;0.43;;;;;;;;;;10597749;27;20030;-73
2022/11/20 04:34:17;;;;;;;2.40;0.70;;;;;;;;;;10572906;27;20242;-76
2022/11/20 04:39:17;;;;;;;4.00;0.65;;;;;;;;;;10596686;27;20542;-72
2022/11/20 04:44:18;;;;;;;3.60;0.60;;;;;;;;;;10594929;27;20413;-79
2022/11/20 04:49:18;;;;;;;2.08;0.50;;;;;;;;;;10614523;27;20537;-74
2022/11/20 04:54:20;;;;;;;3.03;0.63;;;;;;;;;;10596701;27;20027;-77
2022/11/20 04:59:20;;;;;;;1.85;0.60;;;;;;;;;;10596592;27;20026;-74
2022/11/20 05:04:20;;;;;;;2.92;0.43;;;;;;;;;;10595924;27;20401;-74
2022/11/20 05:09:21;;;;;;;3.97;0.52;;;;;;;;;;10595665;27;20063;-74
2022/11/20 05:14:21;;;;;;;1.00;0.40;;;;;;;;;;10595536;27;20485;-76
2022/11/20 05:19:22;;;;;;;4.20;0.65;;;;;;;;;;10572386;27;20038;-82
2022/11/20 05:24:24;;;;;;;3.15;0.63;;;;;;;;;;10578627;27;20050;-79
2022/11/20 05:29:25;;;;;;;1.00;0.65;;;;;;;;;;10614138;27;20054;-77
2022/11/20 05:34:25;;;;;;;1.13;0.57;;;;;;;;;;10594875;27;20114;-76
2022/11/20 05:39:25;;;;;;;2.40;0.90;;;;;;;;;;10594955;27;20087;-76
2022/11/20 05:44:25;;;;;;;4.75;0.77;;;;;;;;;;10611811;27;20379;-73
2022/11/20 05:49:26;;;;;;;3.67;1.10;;;;;;;;;;10619658;27;20533;-74
2022/11/20 05:54:26;;;;;;;9.63;1.80;;;;;;;;;;10630992;27;20533;-74
2022/11/20 05:59:27;;;;;;;4.95;0.73;;;;;;;;;;10629561;27;20058;-77
2022/11/20 06:04:27;;;;;;;10.27;3.83;;;;;;;;;;10561286;28;20531;-79
2022/11/20 06:09:27;;;;;;;1.00;0.83;;;;;;;;;;10541506;28;20066;-74
2022/11/20 06:14:27;;;;;;;1.83;0.98;;;;;;;;;;10561413;28;20595;-76
2022/11/20 06:19:28;;;;;;;4.57;1.02;;;;;;;;;;10526846;28;20442;-76
2022/11/20 06:24:28;;;;;;;2.33;0.82;;;;;;;;;;10528987;28;20024;-78
2022/11/20 06:29:28;;;;;;;5.25;1.13;;;;;;;;;;10567553;28;20547;-78
2022/11/20 06:34:29;;;;;;;7.53;1.25;;;;;;;;;;10568361;28;20047;-74
2022/11/20 06:39:29;;;;;;;1.97;1.00;;;;;;;;;;10568422;28;20034;-80
2022/11/20 06:44:29;;;;;;;3.47;0.88;;;;;;;;;;10549918;28;20024;-75
2022/11/20 06:49:30;;;;;;;5.88;1.02;;;;;;;;;;10553311;28;20024;-78
2022/11/20 06:54:37;;;;;;;1.80;1.02;;;;;;;;;;10546753;28;20097;-79
2022/11/20 06:59:37;;;;;;;9.05;1.00;;;;;;;;;;10554794;28;20037;-79
2022/11/20 07:04:38;;;;;;;3.67;0.95;;;;;;;;;;10548846;28;20111;-76
2022/11/20 07:09:39;;;;;;;5.63;1.20;;;;;;;;;;10562185;28;20051;-79
2022/11/20 07:14:39;;;;;;;8.07;1.55;;;;;;;;;;10551975;28;20647;-77
2022/11/20 07:19:39;;;;;;;6.05;0.98;;;;;;;;;;10554654;28;20024;-76
2022/11/20 07:24:39;;;;;;;7.97;1.07;;;;;;;;;;10549542;28;20453;-77
2022/11/20 07:29:40;;;;;;;3.92;0.82;;;;;;;;;;10552689;28;20035;-76
2022/11/20 07:34:40;;;;;;;3.20;0.95;;;;;;;;;;10556076;28;20498;-75
2022/11/20 07:39:40;;;;;;;5.20;2.35;;;;;;;;;;10558020;28;20040;-75
2022/11/20 07:44:41;;;;;;;7.55;1.38;;;;;;;;;;10546104;28;20115;-75
2022/11/20 07:49:41;;;;;;;4.90;1.38;;;;;;;;;;10535610;28;21168;-76
2022/11/20 07:54:41;;;;;;;9.60;1.73;;;;;;;;;;10544425;28;20032;-78
2022/11/20 07:59:43;;;;;;;1.48;0.85;;;;;;;;;;10554023;28;20588;-77
2022/11/20 08:04:43;;;;;;;5.07;1.77;;;;;;;;;;10549133;28;20029;-74
2022/11/20 08:09:44;;;;;;;3.22;1.55;;;;;;;;;;10549823;28;20055;-76
2022/11/20 08:14:44;;;;;;;5.47;1.50;;;;;;;;;;10548822;28;20027;-79
2022/11/20 08:19:44;;;;;;;7.68;1.35;;;;;;;;;;10558702;28;20081;-79
2022/11/20 08:24:44;;;;;;;6.95;1.73;;;;;;;;;;10554720;28;20032;-78
2022/11/20 08:29:44;;;;;;;4.38;1.40;;;;;;;;;;10547422;28;20035;-74
2022/11/20 08:34:46;;;;;;;13.32;3.97;;;;;;;;;;10554398;28;20052;-75
2022/11/20 08:39:47;;;;;;;5.30;1.10;;;;;;;;;;10569943;28;20023;-71
2022/11/20 08:44:49;;;;;;;8.55;2.13;;;;;;;;;;10574973;28;20480;-73
2022/11/20 08:49:49;;;;;;;11.18;1.98;;;;;;;;;;10550768;28;20099;-71
2022/11/20 08:54:50;;;;;;;5.43;1.20;;;;;;;;;;10570045;28;20106;-74
2022/11/20 08:59:50;;;;;;;4.68;1.10;;;;;;;;;;10576593;28;20038;-75
2022/11/20 09:04:50;;;;;;;9.50;3.20;;;;;;;;;;10547383;28;20020;-73
2022/11/20 09:09:51;;;;;;;5.57;2.17;;;;;;;;;;10570988;28;20150;-77
2022/11/20 09:14:51;;;;;;;12.60;2.20;;;;;;;;;;10545657;28;20460;-78
2022/11/20 09:19:51;;;;;;;4.30;2.20;;;;;;;;;;10543715;28;20027;-75
2022/11/20 09:24:52;;;;;;;10.23;3.10;;;;;;;;;;10539128;28;20387;-75
2022/11/20 09:29:52;;;;;;;7.32;3.30;;;;;;;;;;10559297;28;20040;-73
2022/11/20 09:34:52;;;;;;;11.40;3.97;;;;;;;;;;10542581;28;20049;-75
2022/11/20 09:39:53;;;;;;;6.60;2.20;;;;;;;;;;10555352;28;20059;-74
2022/11/20 09:44:53;;;;;;;2.67;1.73;;;;;;;;;;10543920;28;20047;-73
2022/11/20 09:50:11;;;;;;;5.78;1.85;;;;;;;;;;10558144;28;20274;-73
2022/11/20 09:55:11;;;;;;;;;;;;;;;;;;10572825;28;20463;-74
2022/11/20 10:00:13;;;;;;;1.80;1.58;;;;;;;;;;10564659;28;20002;-73
2022/11/20 10:05:25;;;;;;;3.75;2.97;;;;;;;;;;10562666;28;20024;-72
2022/11/20 10:10:41;;;;;;;6.28;1.30;;;;;;;;;;10555993;28;20067;-74
2022/11/20 10:16:00;;;;;;;2.25;1.20;;;;;;;;;;10554291;28;20031;-75
2022/11/20 10:21:04;;;;;;;3.10;1.20;;;;;;;;;;10552901;28;20168;-75
2022/11/20 10:26:16;;;;;;;4.72;1.58;;;;;;;;;;10566351;27;20027;-78
2022/11/20 10:31:28;;;;;;;9.45;2.63;;;;;;;;;;10549686;28;20341;-75
2022/11/20 10:36:40;;;;;;;2.53;1.67;;;;;;;;;;10550911;28;20068;-73
2022/11/20 10:41:41;;;;;;;8.15;2.45;;;;;;;;;;10543258;28;20047;-76
2022/11/20 10:46:45;;;;;;;8.88;3.17;;;;;;;;;;10546808;28;20482;-75
2022/11/20 10:51:53;;;;;;;8.05;2.85;;;;;;;;;;10555626;28;20520;-75
2022/11/20 10:56:56;;;;;;;9.20;2.80;;;;;;;;;;10554673;28;20475;-73
2022/11/20 11:01:56;;;;;;;11.32;2.90;;;;;;;;;;10557111;28;20040;-74
2022/11/20 11:07:07;;;;;;;6.33;2.97;;;;;;;;;;10556695;28;20047;-80
2022/11/20 11:12:09;;;;;;;9.57;3.38;;;;;;;;;;10574877;28;20046;-76
2022/11/20 11:17:19;;;;;;;12.30;4.60;;;;;;;;;;10595896;28;20031;-76
2022/11/20 11:22:20;;;;;;;16.35;5.70;;;;;;;;;;10574213;28;20023;-76
2022/11/20 11:27:20;;;;;;;8.75;2.85;;;;;;;;;;10569695;28;20441;-74
2022/11/20 11:32:21;;;;;;;3.63;1.75;;;;;;;;;;10582092;28;20451;-74
2022/11/20 11:37:22;;;;;;;2.08;0.88;;;;;;;;;;10588744;28;20062;-74
2022/11/20 11:42:22;;;;;;;4.43;0.98;;;;;;;;;;10607851;28;20035;-72
2022/11/20 11:47:29;;;;;;;3.43;0.80;;;;;;;;;;10595701;28;20508;-75
2022/11/20 11:52:31;;;;;;;2.17;1.10;;;;;;;;;;10585696;27;20141;-74
2022/11/20 11:57:50;;;;;;;3.58;1.02;;;;;;;;;;10599385;27;20023;-73
2022/11/20 12:03:00;;;;;;;4.70;0.85;;;;;;;;;;10579391;27;20387;-74
2022/11/20 12:08:09;;;;;;;4.65;0.90;;;;;;;;;;10571206;27;20121;-74
2022/11/20 12:13:28;;;;;;;3.15;0.70;;;;;;;;;;10577284;27;20549;-73
2022/11/20 12:18:28;;;;;;;0.45;0.30;;;;;;;;;;10581626;27;20038;-73
2022/11/20 12:23:48;;;;;;;5.85;0.55;;;;;;;;;;10590606;27;20027;-72
2022/11/20 12:29:18;;;;;;;2.30;0.50;;;;;;;;;;10584059;27;20140;-74
2022/11/20 12:34:23;;;;;;;6.50;0.47;;;;;;;;;;10526350;27;20028;-77
2022/11/20 12:39:30;;;;;;;4.47;1.25;;;;;;;;;;10598830;27;20054;-77
2022/11/20 12:50:07;;;;;;;3.35;0.57;;;;;;;;;;10593793;27;20452;-76
2022/11/20 12:55:16;;;;;;;9.82;0.98;;;;;;;;;;10582619;27;20042;-75
2022/11/20 13:00:22;;;;;;;5.30;0.80;;;;;;;;;;10580407;27;20056;-74
2022/11/20 13:05:41;;;;;;;10.55;2.35;;;;;;;;;;10569982;27;20031;-74
2022/11/20 13:10:51;;;;;;;5.43;1.67;;;;;;;;;;10575715;27;20081;-78
2022/11/20 13:15:59;;;;;;;7.95;1.90;;;;;;;;;;10569743;27;20031;-72
2022/11/20 13:20:59;;;;;;;8.13;1.90;;;;;;;;;;10579418;27;20028;-75
2022/11/20 13:26:04;;;;;;;8.47;2.50;;;;;;;;;;10570466;27;20031;-75
2022/11/20 13:31:06;;;;;;;3.45;1.42;;;;;;;;;;10591535;27;20015;-73
2022/11/20 13:36:20;;;;;;;5.85;2.50;;;;;;;;;;10577238;27;20049;-72
2022/11/20 13:41:31;;;;;;;12.13;3.55;;;;;;;;;;10578854;27;20473;-73
2022/11/20 13:46:36;;;;;;;5.75;2.70;;;;;;;;;;10573246;27;20023;-73
2022/11/20 13:51:42;;;;;;;8.32;2.13;;;;;;;;;;10573649;27;20417;-73
2022/11/20 13:56:54;;;;;;;3.45;1.80;;;;;;;;;;10576495;27;20035;-74
2022/11/20 14:01:55;;;;;;;8.95;3.20;;;;;;;;;;10585167;27;20110;-73
2022/11/20 14:06:57;;;;;;;10.65;2.67;;;;;;;;;;10602521;27;20047;-75
2022/11/20 14:11:57;;;;;;;7.30;2.72;;;;;;;;;;10595397;27;20063;-72
2022/11/20 14:17:08;;;;;;;5.68;2.90;;;;;;;;;;10597189;27;20024;-73
2022/11/20 14:22:15;;;;;;;9.23;2.70;;;;;;;;;;10596957;27;20112;-74
2022/11/20 14:27:20;;;;;;;12.35;2.83;;;;;;;;;;10571206;27;20019;-79
2022/11/20 14:32:22;;;;;;;5.82;2.53;;;;;;;;;;10581514;27;20123;-77
2022/11/20 14:37:27;;;;;;;11.82;3.40;;;;;;;;;;10579525;27;20019;-71
2022/11/20 14:42:28;;;;;;;6.53;3.33;;;;;;;;;;10577414;27;20027;-73
2022/11/20 14:47:29;;;;;;;8.82;3.30;;;;;;;;;;10589935;27;20019;-79
2022/11/20 14:52:30;;;;;;;12.57;4.32;;;;;;;;;;10571725;27;20405;-73
2022/11/20 14:57:35;;;;;;;8.73;3.67;;;;;;;;;;10592550;27;20402;-75
2022/11/20 15:02:39;;;;;;;8.55;2.88;;;;;;;;;;10596035;27;20410;-73
2022/11/20 15:07:45;;;;;;;10.20;3.97;;;;;;;;;;10582411;27;20043;-72
2022/11/20 15:12:56;;;;;;;12.70;4.63;;;;;;;;;;10567745;28;20123;-77
2022/11/20 15:17:57;;;;;;;10.13;3.90;;;;;;;;;;10580548;28;20027;-73
2022/11/20 15:22:57;;;;;;;5.32;2.95;;;;;;;;;;10573650;28;20062;-73
2022/11/20 15:27:57;;;;;;;3.30;2.47;;;;;;;;;;10601894;27;20518;-74
2022/11/20 15:32:59;;;;;;;6.10;2.63;;;;;;;;;;10597948;27;20436;-76
2022/11/20 15:37:59;;;;;;;5.63;2.40;;;;;;;;;;10558280;27;20055;-74
2022/11/20 15:43:02;;;;;;;3.97;2.08;;;;;;;;;;10576826;27;20027;-75
2022/11/20 15:48:03;;;;;;;3.63;1.52;;;;;;;;;;10584373;27;20034;-73
2022/11/20 15:53:03;;;;;;;5.35;2.38;;;;;;;;;;10572879;27;20486;-74
2022/11/20 15:58:04;;;;;;;6.32;2.78;;;;;;;;;;10602488;27;20058;-75
2022/11/20 16:03:04;;;;;;;4.13;2.20;;;;;;;;;;10579795;27;20023;-74
2022/11/20 16:08:04;;;;;;;4.63;2.10;;;;;;;;;;10580430;27;20050;-74
2022/11/20 16:18:31;;;;;;;3.15;1.88;;;;;;;;;;10607626;27;20780;-75
2022/11/20 16:23:32;;;;;;;2.75;1.63;;;;;;;;;;10567466;27;20019;-76
2022/11/20 16:28:33;;;;;;;3.22;1.58;;;;;;;;;;10590435;27;20023;-75
2022/11/20 16:33:33;;;;;;;3.55;1.75;;;;;;;;;;10595580;27;20028;-73
2022/11/20 16:38:33;;;;;;;8.68;1.80;;;;;;;;;;10608221;27;20607;-73
2022/11/20 16:43:33;;;;;;;3.25;1.67;;;;;;;;;;10597848;27;20455;-74
2022/11/20 16:48:34;;;;;;;4.80;1.60;;;;;;;;;;10610210;27;20015;-74
2022/11/20 16:53:34;;;;;;;9.37;2.47;;;;;;;;;;10596777;27;20027;-74
2022/11/20 16:58:34;;;;;;;3.08;1.80;;;;;;;;;;10585016;27;20073;-75
2022/11/20 17:03:38;;;;;;;2.35;1.38;;;;;;;;;;10587267;27;20011;-76
2022/11/20 17:08:39;;;;;;;1.40;1.00;;;;;;;;;;10561097;27;20039;-75
2022/11/20 17:13:39;;;;;;;2.33;1.63;;;;;;;;;;10597625;27;20486;-76
2022/11/20 17:18:40;;;;;;;3.92;1.48;;;;;;;;;;10571945;27;20083;-73
2022/11/20 17:23:41;;;;;;;2.83;1.70;;;;;;;;;;10584854;27;20478;-75
2022/11/20 17:28:43;;;;;;;3.78;1.40;;;;;;;;;;10575299;27;20016;-75
2022/11/20 17:33:44;;;;;;;2.35;1.67;;;;;;;;;;10585072;27;20406;-74
2022/11/20 17:38:44;;;;;;;3.67;1.75;;;;;;;;;;10563411;27;20027;-73
2022/11/20 17:43:45;;;;;;;7.93;1.65;;;;;;;;;;10577276;27;20471;-76
2022/11/20 17:48:46;;;;;;;9.00;4.00;;;;;;;;;;10590741;27;20421;-73
2022/11/20 17:53:48;;;;;;;8.13;3.58;;;;;;;;;;10555543;27;20277;-72
2022/11/20 17:58:48;;;;;;;8.77;3.67;;;;;;;;;;10582206;27;20126;-75
2022/11/20 18:03:48;;;;;;;7.22;3.67;;;;;;;;;;10582070;27;20027;-73
2022/11/20 18:08:50;;;;;;;8.93;4.05;;;;;;;;;;10593222;27;20039;-73
2022/11/20 18:19:15;;;;;;;4.55;2.45;;;;;;;;;;10716850;22;20047;-73
2022/11/20 18:24:16;;;;;;;5.50;2.38;;;;;;;;;;10502924;28;20023;-77
2022/11/20 18:29:17;;;;;;;5.00;2.75;;;;;;;;;;10502948;28;20348;-75
2022/11/20 18:34:17;;;;;;;5.20;3.13;;;;;;;;;;10511815;28;20039;-75
2022/11/20 18:39:17;;;;;;;7.63;2.00;;;;;;;;;;10515253;28;20073;-75
2022/11/20 18:49:39;;;;;;;6.15;1.80;;;;;;;;;;10516284;28;20037;-76
2022/11/20 18:54:39;;;;;;;5.00;1.77;;;;;;;;;;10503532;28;20036;-73
2022/11/20 18:59:41;;;;;;;3.00;1.65;;;;;;;;;;10514054;28;20024;-74
2022/11/20 19:04:42;;;;;;;3.10;1.63;;;;;;;;;;10517903;28;20036;-76
2022/11/20 19:09:44;;;;;;;5.68;2.60;;;;;;;;;;10530929;28;20135;-74
2022/11/20 19:14:44;;;;;;;9.45;3.80;;;;;;;;;;10525572;28;20392;-73
2022/11/20 19:19:45;;;;;;;6.33;4.07;;;;;;;;;;10522470;28;20068;-72
2022/11/20 19:24:45;;;;;;;10.80;5.10;;;;;;;;;;10512082;28;20035;-74
2022/11/20 19:29:45;;;;;;;7.00;4.30;;;;;;;;;;10504440;28;20202;-76
2022/11/20 19:34:45;;;;;;;6.82;4.85;;;;;;;;;;10501161;28;20475;-73
2022/11/20 19:39:46;;;;;;;6.67;3.70;;;;;;;;;;10506593;28;20024;-77
2022/11/20 19:44:46;;;;;;;6.75;3.63;;;;;;;;;;10508356;28;20543;-77
2022/11/20 19:49:46;;;;;;;8.48;3.90;;;;;;;;;;10508740;28;20039;-79
2022/11/20 19:54:46;;;;;;;6.63;2.70;;;;;;;;;;10493248;28;20102;-80
2022/11/20 19:59:47;;;;;;;9.63;2.80;;;;;;;;;;10500394;28;20479;-73
2022/11/20 20:04:47;;;;;;;10.23;2.65;;;;;;;;;;10504205;28;20459;-81
2022/11/20 20:09:48;;;;;;;4.10;2.65;;;;;;;;;;10493176;28;20036;-79
2022/11/20 20:14:48;;;;;;;2.87;1.67;;;;;;;;;;10492629;28;20048;-78
2022/11/20 20:19:48;;;;;;;4.07;1.30;;;;;;;;;;10671655;22;20047;-75
2022/11/20 20:24:50;;;;;;;4.10;2.53;;;;;;;;;;10561536;27;20087;-78
2022/11/20 20:29:51;;;;;;;3.55;2.08;;;;;;;;;;10580502;27;20441;-75
2022/11/20 20:34:52;;;;;;;4.10;2.15;;;;;;;;;;10574744;27;20536;-76
2022/11/20 20:39:53;;;;;;;5.03;2.45;;;;;;;;;;10585898;27;20054;-79
2022/11/20 20:45:07;;;;;;;7.68;2.15;;;;;;;;;;10581223;27;20036;-78
2022/11/20 20:50:09;;;;;;;2.72;2.50;;;;;;;;;;10585204;27;20019;-74
2022/11/20 20:55:09;;;;;;;4.13;2.45;;;;;;;;;;10584771;27;20110;-74
2022/11/20 21:00:10;;;;;;;3.67;2.20;;;;;;;;;;10580237;27;20027;-75
2022/11/20 21:05:10;;;;;;;5.40;2.10;;;;;;;;;;10599150;27;20027;-73
2022/11/20 21:10:11;;;;;;;4.80;1.73;;;;;;;;;;10579498;27;20633;-75
2022/11/20 21:15:11;;;;;;;2.97;1.75;;;;;;;;;;10568099;27;20038;-78
2022/11/20 21:25:34;;;;;;;6.93;1.85;;;;;;;;;;10598271;27;20023;-76
2022/11/20 21:30:35;;;;;;;4.78;1.85;;;;;;;;;;10586327;27;20035;-75
2022/11/20 21:35:36;;;;;;;11.85;4.05;;;;;;;;;;10583721;27;20349;-72
2022/11/20 21:40:36;;;;;;;3.75;1.65;;;;;;;;;;10612836;27;20023;-75
2022/11/20 21:45:37;;;;;;;6.18;2.47;;;;;;;;;;10600489;27;20054;-74
2022/11/20 21:50:37;;;;;;;6.38;2.90;;;;;;;;;;10622527;27;20031;-72
2022/11/20 21:55:38;;;;;;;5.63;2.55;;;;;;;;;;10621095;27;20065;-73
2022/11/20 22:00:39;;;;;;;3.97;2.40;;;;;;;;;;10597242;27;20110;-74
2022/11/20 22:05:40;;;;;;;4.97;2.70;;;;;;;;;;10592284;27;20031;-76
2022/11/20 22:10:41;;;;;;;8.23;4.53;;;;;;;;;;10615355;27;20038;-73
2022/11/20 22:15:41;;;;;;;6.78;3.83;;;;;;;;;;10620885;27;20485;-73
2022/11/20 22:20:41;;;;;;;6.45;3.22;;;;;;;;;;10620229;27;20075;-76
2022/11/20 22:25:41;;;;;;;12.30;5.23;;;;;;;;;;10602107;27;20324;-74
2022/11/20 22:30:42;;;;;;;13.53;7.20;;;;;;;;;;10599984;27;20441;-74
2022/11/20 22:35:43;;;;;;;12.13;6.40;;;;;;;;;;10594925;27;20106;-75
2022/11/20 22:40:45;;;;;;;13.70;7.22;;;;;;;;;;10592391;27;20313;-73
2022/11/20 22:45:45;;;;;;;13.85;8.40;;;;;;;;;;10592629;27;20469;-78
2022/11/20 22:50:46;;;;;;;16.92;8.57;;;;;;;;;;10592507;27;20114;-79
2022/11/20 22:55:48;;;;;;;15.52;8.55;;;;;;;;;;10591924;27;20027;-74
2022/11/20 23:00:48;;;;;;;14.57;8.80;;;;;;;;;;10592008;27;20508;-75
2022/11/20 23:05:48;;;;;;;12.80;7.85;;;;;;;;;;10591983;27;20023;-73
2022/11/20 23:10:48;;;;;;;13.82;7.55;;;;;;;;;;10591493;27;20037;-72
2022/11/20 23:15:51;;;;;;;13.60;6.15;;;;;;;;;;10574148;28;20483;-78
2022/11/20 23:20:51;;;;;;;14.85;6.40;;;;;;;;;;10569909;28;20437;-74
2022/11/20 23:25:52;;;;;;;16.20;7.05;;;;;;;;;;10565428;28;20022;-74
2022/11/20 23:30:52;;;;;;;12.93;6.40;;;;;;;;;;10567196;28;20442;-75
2022/11/20 23:35:52;;;;;;;12.18;6.65;;;;;;;;;;10570597;28;20414;-78
2022/11/20 23:40:53;;;;;;;14.60;6.70;;;;;;;;;;10565879;28;20559;-76
2022/11/20 23:45:54;;;;;;;15.07;6.97;;;;;;;;;;10567184;28;20265;-74
2022/11/20 23:50:55;;;;;;;12.13;6.65;;;;;;;;;;10557051;28;20035;-75
2022/11/20 23:55:56;;;;;;;10.63;5.47;;;;;;;;;;10574316;28;20068;-78
